createdAt,value
2022-08-17T00:04:10.883Z,63.85
2022-08-17T00:09:46.659Z,64.56
2022-08-17T00:19:01.269Z,65.00
2022-08-17T00:23:55.980Z,65.47
2022-08-17T00:26:45.807Z,65.65
2022-08-17T00:33:12.247Z,66.07
2022-08-17T00:37:59.725Z,66.14
2022-08-17T00:40:55.911Z,66.57
2022-08-17T00:43:47.833Z,65.70
2022-08-17T00:46:40.642Z,65.90
2022-08-17T00:49:30.867Z,65.81
2022-08-17T00:55:10.594Z,65.70
2022-08-17T01:00:42.282Z,65.75
2022-08-17T01:03:31.686Z,65.59
2022-08-17T01:09:09.257Z,65.09
2022-08-17T01:11:59.426Z,64.29
2022-08-17T01:20:26.176Z,64.86
2022-08-17T01:26:03.417Z,65.08
2022-08-17T01:28:55.684Z,65.17
2022-08-17T01:34:42.685Z,65.18
2022-08-17T01:37:32.434Z,65.47
2022-08-17T01:43:10.320Z,62.99
2022-08-17T01:48:41.195Z,64.07
2022-08-17T01:51:33.179Z,64.16
2022-08-17T01:54:23.868Z,64.39
2022-08-17T01:57:12.587Z,65.22
2022-08-17T02:02:49.310Z,66.26
2022-08-17T02:05:37.958Z,66.64
2022-08-17T02:08:39.149Z,67.05
2022-08-17T02:11:20.360Z,66.73
2022-08-17T02:14:13.163Z,66.54
2022-08-17T02:19:46.823Z,67.01
2022-08-17T02:22:36.951Z,66.53
2022-08-17T02:25:27.659Z,66.50
2022-08-17T02:31:05.948Z,64.59
2022-08-17T02:33:56.918Z,65.02
2022-08-17T02:36:45.428Z,65.29
2022-08-17T02:42:18.361Z,63.94
2022-08-17T02:47:57.348Z,63.12
2022-08-17T02:53:26.475Z,62.18
2022-08-17T02:56:16.954Z,62.14
2022-08-17T03:01:55.314Z,61.83
2022-08-17T03:07:31.629Z,62.12
2022-08-17T03:10:21.630Z,62.44
2022-08-17T03:15:57.445Z,61.88
2022-08-17T03:21:35.321Z,61.85
2022-08-17T03:27:07.853Z,61.94
2022-08-17T03:29:56.962Z,61.96
2022-08-17T03:32:48.636Z,61.99
2022-08-17T03:38:18.962Z,61.99
2022-08-17T03:41:08.369Z,61.90
2022-08-17T03:46:55.987Z,62.67
2022-08-17T03:50:05.514Z,63.45
2022-08-17T03:53:19.549Z,63.28
2022-08-17T03:56:26.314Z,63.03
2022-08-17T04:02:03.692Z,63.80
2022-08-17T04:07:44.044Z,63.83
2022-08-17T04:13:24.244Z,64.25
2022-08-17T04:18:57.451Z,64.24
2022-08-17T04:21:45.794Z,63.94
2022-08-17T04:27:24.324Z,64.59
2022-08-17T04:33:06.294Z,64.76
2022-08-17T04:38:31.381Z,63.20
2022-08-17T04:44:06.794Z,63.20
2022-08-17T04:46:57.136Z,62.96
2022-08-17T04:52:48.106Z,63.17
2022-08-17T04:58:22.787Z,63.20
2022-08-17T05:03:54.069Z,62.00
2022-08-17T05:09:25.405Z,61.40
2022-08-17T05:14:55.237Z,61.22
2022-08-17T05:20:30.276Z,60.48
2022-08-17T05:23:20.131Z,60.16
2022-08-17T05:28:59.560Z,58.39
2022-08-17T05:31:54.220Z,58.18
2022-08-17T05:37:29.524Z,59.53
2022-08-17T05:40:21.357Z,59.17
2022-08-17T05:43:11.855Z,58.81
2022-08-17T05:48:46.963Z,58.84
2022-08-17T05:51:56.571Z,59.11
2022-08-17T05:57:56.023Z,59.82
2022-08-17T06:03:43.575Z,55.29
2022-08-17T06:09:35.802Z,54.88
2022-08-17T06:12:42.711Z,53.81
2022-08-17T06:18:19.092Z,51.25
2022-08-17T06:29:56.222Z,51.00
2022-08-17T06:35:34.162Z,52.54
2022-08-17T06:41:16.883Z,55.24
2022-08-17T06:44:11.432Z,56.45
2022-08-17T06:49:55.184Z,54.19
2022-08-17T06:55:47.795Z,50.28
2022-08-17T07:01:25.050Z,50.10
2022-08-17T07:04:16.905Z,50.95
2022-08-17T07:09:50.265Z,51.81
2022-08-17T07:15:27.092Z,53.51
2022-08-17T07:21:05.560Z,51.68
2022-08-17T07:27:11.765Z,48.38
2022-08-17T07:38:26.805Z,49.38
2022-08-17T07:43:56.511Z,49.84
2022-08-17T07:49:42.013Z,49.47
2022-08-17T07:58:09.337Z,49.46
2022-08-17T08:03:52.869Z,49.47
2022-08-17T08:09:40.396Z,47.95
2022-08-17T08:15:25.915Z,48.42
2022-08-17T08:21:15.300Z,49.49
2022-08-17T08:24:19.757Z,45.41
2022-08-17T08:38:23.369Z,42.53
2022-08-17T08:44:18.926Z,42.53
2022-08-17T08:53:11.302Z,43.86
2022-08-17T08:58:43.844Z,43.32
2022-08-17T09:05:10.764Z,43.60
2022-08-17T09:07:37.569Z,43.26
2022-08-17T09:10:29.259Z,43.54
2022-08-17T09:19:00.336Z,43.13
2022-08-17T09:24:31.089Z,42.90
2022-08-17T09:32:46.946Z,42.37
2022-08-17T09:38:22.370Z,43.24
2022-08-17T09:44:13.515Z,42.72
2022-08-17T09:49:55.207Z,41.54
2022-08-17T09:55:44.052Z,41.32
2022-08-17T10:01:29.440Z,41.03
2022-08-17T10:04:29.871Z,39.30
2022-08-17T10:10:24.378Z,38.92
2022-08-17T10:16:07.445Z,39.25
2022-08-17T10:22:14.608Z,39.41
2022-08-17T10:25:23.089Z,38.19
2022-08-17T10:31:23.451Z,36.95
2022-08-17T10:33:53.550Z,36.99
2022-08-17T10:39:50.478Z,35.62
2022-08-17T10:45:20.414Z,36.06
2022-08-17T10:51:13.238Z,37.48
2022-08-17T10:54:02.378Z,36.06
2022-08-17T10:59:51.191Z,36.67
2022-08-17T11:05:44.081Z,35.54
2022-08-17T11:09:09.262Z,35.81
2022-08-17T11:15:18.893Z,36.86
2022-08-17T11:21:37.517Z,36.91
2022-08-17T11:30:19.920Z,35.67
2022-08-17T11:33:47.875Z,36.22
2022-08-17T11:46:29.880Z,35.48
2022-08-17T11:49:42.726Z,34.84
2022-08-17T11:58:44.211Z,33.69
2022-08-17T12:04:46.203Z,33.90
2022-08-17T12:10:28.008Z,34.18
2022-08-17T12:16:10.956Z,32.17
2022-08-17T12:24:44.611Z,32.88
2022-08-17T12:30:24.120Z,32.74
2022-08-17T12:36:05.176Z,32.31
2022-08-17T12:44:23.127Z,32.78
2022-08-17T12:47:21.935Z,32.14
2022-08-17T12:53:01.102Z,33.75
2022-08-17T12:58:27.536Z,32.30
2022-08-17T13:09:40.733Z,31.75
2022-08-17T13:15:34.973Z,32.91
2022-08-17T13:21:30.367Z,33.87
2022-08-17T13:27:11.387Z,32.80
2022-08-17T13:30:02.290Z,33.20
2022-08-17T13:32:52.859Z,33.60
2022-08-17T13:38:45.320Z,33.39
2022-08-17T13:44:37.146Z,33.88
2022-08-17T13:50:25.163Z,33.62
2022-08-17T13:56:37.055Z,33.66
2022-08-17T14:01:53.618Z,33.99
2022-08-17T14:07:33.540Z,32.66
2022-08-17T14:13:15.353Z,32.66
2022-08-17T14:18:56.268Z,32.62
2022-08-17T14:21:40.972Z,32.41
2022-08-17T14:27:34.057Z,33.89
2022-08-17T14:33:17.293Z,34.74
2022-08-17T14:36:06.165Z,35.39
2022-08-17T14:41:43.808Z,35.00
2022-08-17T14:44:32.731Z,35.37
2022-08-17T14:50:11.299Z,35.66
2022-08-17T14:53:01.352Z,35.99
2022-08-17T14:55:51.427Z,35.95
2022-08-17T14:58:42.573Z,36.20
2022-08-17T15:04:20.713Z,36.57
2022-08-17T15:09:56.542Z,35.76
2022-08-17T15:18:18.533Z,36.22
2022-08-17T15:23:47.662Z,36.63
2022-08-17T15:29:19.969Z,37.92
2022-08-17T15:34:47.184Z,37.49
2022-08-17T15:40:22.813Z,38.31
2022-08-17T15:43:14.110Z,38.43
2022-08-17T15:48:49.641Z,38.23
2022-08-17T15:54:31.789Z,38.44
2022-08-17T16:00:09.302Z,38.54
2022-08-17T16:05:43.791Z,38.04
2022-08-17T16:11:26.322Z,37.88
2022-08-17T16:16:54.623Z,38.96
2022-08-17T16:22:33.022Z,38.74
2022-08-17T16:28:10.095Z,39.26
2022-08-17T16:34:03.777Z,39.67
2022-08-17T16:39:14.810Z,39.90
2022-08-17T16:42:05.088Z,39.97
2022-08-17T16:47:33.664Z,40.11
2022-08-17T16:53:16.900Z,40.48
2022-08-17T16:56:07.213Z,40.17
2022-08-17T17:01:43.654Z,40.98
2022-08-17T17:04:35.049Z,41.14
2022-08-17T17:07:57.290Z,41.62
2022-08-17T17:13:33.168Z,41.65
2022-08-17T17:19:13.162Z,41.69
2022-08-17T17:22:04.531Z,41.78
2022-08-17T17:27:46.563Z,42.12
2022-08-17T17:36:28.485Z,42.72
2022-08-17T17:42:03.319Z,43.50
2022-08-17T17:47:32.744Z,45.31
2022-08-17T17:53:09.460Z,45.73
2022-08-17T17:56:05.211Z,45.84
2022-08-17T18:01:46.302Z,46.56
2022-08-17T18:04:39.920Z,46.86
2022-08-17T18:10:30.200Z,46.90
2022-08-17T18:15:51.004Z,46.50
2022-08-17T18:18:42.792Z,46.29
2022-08-17T18:21:35.625Z,46.29
2022-08-17T18:24:32.247Z,46.28
2022-08-17T18:27:24.350Z,46.08
2022-08-17T18:36:10.118Z,46.40
2022-08-17T18:41:59.520Z,46.40
2022-08-17T18:44:50.599Z,46.06
2022-08-17T18:50:28.873Z,45.86
2022-08-17T18:56:30.715Z,46.06
2022-08-17T18:59:35.190Z,45.30
2022-08-17T19:05:27.721Z,45.53
2022-08-17T19:11:11.142Z,46.14
2022-08-17T19:14:03.999Z,46.12
2022-08-17T19:19:42.037Z,47.56
2022-08-17T19:22:34.317Z,47.94
2022-08-17T19:25:25.933Z,48.24
2022-08-17T19:31:09.642Z,48.93
2022-08-17T19:34:00.209Z,49.17
2022-08-17T19:36:51.426Z,49.69
2022-08-17T19:42:24.264Z,53.71
2022-08-17T19:48:04.106Z,58.80
2022-08-17T19:54:03.844Z,67.07
2022-08-17T19:59:16.585Z,71.72
2022-08-17T20:10:28.136Z,85.44
2022-08-17T20:13:19.307Z,88.42
2022-08-17T20:18:52.729Z,93.46
2022-08-17T20:21:44.219Z,94.02
2022-08-17T20:24:36.072Z,94.68
2022-08-17T20:36:07.144Z,93.12
2022-08-17T20:38:57.154Z,93.96
2022-08-17T20:44:50.810Z,94.97
2022-08-17T20:48:07.445Z,95.80
2022-08-17T20:54:01.753Z,95.07
2022-08-17T20:57:01.455Z,95.30
2022-08-17T21:00:50.766Z,98.30
2022-08-17T21:06:33.422Z,94.65
2022-08-17T21:12:37.763Z,94.83
2022-08-17T21:18:23.232Z,96.36
2022-08-17T21:24:13.370Z,96.58
2022-08-17T21:27:05.260Z,96.90
2022-08-17T21:29:57.519Z,95.46
2022-08-17T21:35:47.992Z,93.15
2022-08-17T21:41:23.600Z,91.02
2022-08-17T21:47:17.546Z,93.58
2022-08-17T21:53:04.828Z,92.24
2022-08-17T21:58:48.673Z,90.27
2022-08-17T22:01:38.171Z,92.76
2022-08-17T22:04:32.857Z,93.63
2022-08-17T22:10:07.844Z,94.65
2022-08-17T22:16:28.353Z,96.24
2022-08-17T22:22:04.158Z,95.96
2022-08-17T22:27:54.854Z,92.52
2022-08-17T22:33:39.671Z,94.55
2022-08-17T22:36:30.312Z,94.76
2022-08-17T22:42:47.534Z,95.51
2022-08-17T22:48:22.113Z,95.96
2022-08-17T22:54:13.934Z,95.63
2022-08-17T22:57:22.774Z,96.61
2022-08-17T23:03:20.384Z,97.51
2022-08-17T23:08:59.351Z,96.46
2022-08-17T23:11:51.649Z,95.85
2022-08-17T23:14:42.360Z,95.87
2022-08-17T23:17:37.417Z,95.55
2022-08-17T23:23:14.500Z,96.53
2022-08-17T23:28:51.385Z,96.98
2022-08-17T23:31:41.180Z,95.57
2022-08-17T23:34:30.033Z,94.31
2022-08-17T23:37:20.129Z,96.45
2022-08-17T23:40:11.215Z,96.65
2022-08-17T23:43:00.038Z,94.40
2022-08-17T23:45:50.316Z,94.58
2022-08-17T23:51:29.107Z,94.04
2022-08-17T23:57:33.662Z,95.50
